createdAt,value
2023-04-04T00:02:38.538Z,83.98
2023-04-04T00:10:14.238Z,84.33
2023-04-04T00:17:48.106Z,84.53
2023-04-04T00:25:23.300Z,84.31
2023-04-04T00:32:58.145Z,84.43
2023-04-04T00:40:33.586Z,84.77
2023-04-04T00:48:08.073Z,85.41
2023-04-04T00:55:43.849Z,85.33
2023-04-04T01:03:17.677Z,86.29
2023-04-04T01:10:53.048Z,86.95
2023-04-04T01:18:28.300Z,87.16
2023-04-04T01:26:08.003Z,88.45
2023-04-04T01:33:46.446Z,88.62
2023-04-04T01:41:22.290Z,89.36
2023-04-04T01:48:56.085Z,90.37
2023-04-04T01:56:31.337Z,91.81
2023-04-04T02:04:05.416Z,92.89
2023-04-04T02:11:41.583Z,94.06
2023-04-04T02:19:15.291Z,95.78
2023-04-04T02:26:50.694Z,96.57
2023-04-04T02:34:24.856Z,96.91
2023-04-04T02:41:59.765Z,99.11
2023-04-04T03:05:18.579Z,99.26
2023-04-04T03:12:54.418Z,100.00
2023-04-04T03:20:28.401Z,100.00
2023-04-04T03:28:11.536Z,100.00
2023-04-04T03:35:45.550Z,100.00
2023-04-04T03:43:20.787Z,100.00
2023-04-04T03:50:55.048Z,100.00
2023-04-04T03:58:31.199Z,100.00
2023-04-04T04:06:05.264Z,100.00
2023-04-04T04:13:40.375Z,100.00
2023-04-04T04:21:14.363Z,100.00
2023-04-04T04:28:49.503Z,100.00
2023-04-04T04:36:24.290Z,100.00
2023-04-04T04:43:59.606Z,100.00
2023-04-04T04:51:34.119Z,100.00
2023-04-04T05:07:02.839Z,100.00
2023-04-04T05:14:38.846Z,100.00
2023-04-04T05:22:12.846Z,100.00
2023-04-04T05:29:48.594Z,100.00
2023-04-04T05:37:22.856Z,100.00
2023-04-04T05:44:58.305Z,100.00
2023-04-04T05:52:32.231Z,100.00
2023-04-04T06:00:09.995Z,100.00
2023-04-04T06:07:44.134Z,100.00
2023-04-04T06:15:19.544Z,100.00
2023-04-04T06:22:54.237Z,100.00
2023-04-04T06:30:29.494Z,100.00
2023-04-04T06:38:04.387Z,100.00
2023-04-04T06:53:31.941Z,100.00
2023-04-04T07:01:07.579Z,98.73
2023-04-04T07:08:42.161Z,94.51
2023-04-04T07:16:17.976Z,92.10
2023-04-04T07:23:52.231Z,89.50
2023-04-04T07:31:27.715Z,88.44
2023-04-04T07:39:01.651Z,86.49
2023-04-04T07:46:38.294Z,83.33
2023-04-04T08:02:05.540Z,76.53
2023-04-04T08:09:39.528Z,71.01
2023-04-04T08:17:18.944Z,70.51
2023-04-04T08:24:52.869Z,68.36
2023-04-04T08:32:28.742Z,63.48
2023-04-04T08:40:03.089Z,61.01
2023-04-04T08:47:39.513Z,63.83
2023-04-04T08:55:16.433Z,61.12
2023-04-04T09:03:00.689Z,54.80
2023-04-04T09:10:36.044Z,56.88
2023-04-04T09:18:11.546Z,56.67
2023-04-04T09:33:28.465Z,54.06
2023-04-04T09:41:02.301Z,54.27
2023-04-04T09:48:37.897Z,55.14
2023-04-04T09:56:12.543Z,55.14
2023-04-04T10:03:52.476Z,54.77
2023-04-04T10:11:32.242Z,55.41
2023-04-04T10:19:08.729Z,55.73
2023-04-04T10:26:42.839Z,56.43
2023-04-04T10:34:23.168Z,56.25
2023-04-04T10:41:58.824Z,54.58
2023-04-04T10:49:35.203Z,52.13
2023-04-04T10:57:09.479Z,52.72
2023-04-04T11:04:48.986Z,52.42
2023-04-04T11:12:34.283Z,52.73
2023-04-04T11:20:11.316Z,51.85
2023-04-04T11:27:47.945Z,50.01
2023-04-04T11:35:23.448Z,50.22
2023-04-04T11:43:03.214Z,51.23
2023-04-04T11:50:41.099Z,48.47
2023-04-04T11:58:18.041Z,47.65
2023-04-04T12:05:53.348Z,48.15
2023-04-04T12:13:32.215Z,46.49
2023-04-04T12:21:08.009Z,47.69
2023-04-04T12:28:45.285Z,48.17
2023-04-04T12:36:23.348Z,48.07
2023-04-04T12:44:04.364Z,45.88
2023-04-04T12:51:39.560Z,46.81
2023-04-04T12:59:13.476Z,45.95
2023-04-04T13:06:49.020Z,45.62
2023-04-04T13:14:23.021Z,45.60
2023-04-04T13:21:58.206Z,44.50
2023-04-04T13:29:32.336Z,45.64
2023-04-04T13:37:07.890Z,43.71
2023-04-04T13:44:41.805Z,43.41
2023-04-04T13:52:16.897Z,43.87
2023-04-04T13:59:50.769Z,43.86
2023-04-04T14:07:26.170Z,43.88
2023-04-04T14:15:00.139Z,42.45
2023-04-04T14:22:36.744Z,42.21
2023-04-04T14:30:15.040Z,42.20
2023-04-04T14:37:50.356Z,42.24
2023-04-04T14:45:24.474Z,43.02
2023-04-04T14:52:59.751Z,42.76
2023-04-04T15:00:34.890Z,42.02
2023-04-04T15:08:10.085Z,42.31
2023-04-04T15:15:43.913Z,43.12
2023-04-04T15:23:19.111Z,43.52
2023-04-04T15:30:52.879Z,42.14
2023-04-04T15:38:28.033Z,41.11
2023-04-04T15:46:02.051Z,39.77
2023-04-04T15:53:37.420Z,40.32
2023-04-04T16:01:12.141Z,41.56
2023-04-04T16:08:47.533Z,41.57
2023-04-04T16:16:21.479Z,42.93
2023-04-04T16:23:56.785Z,43.81
2023-04-04T16:31:30.823Z,44.64
2023-04-04T16:39:06.413Z,45.04
2023-04-04T16:46:40.624Z,45.47
2023-04-04T16:54:16.322Z,45.65
2023-04-04T17:01:50.228Z,46.85
2023-04-04T17:09:25.483Z,47.35
2023-04-04T17:17:00.622Z,47.63
2023-04-04T17:24:35.997Z,48.26
2023-04-04T17:32:09.962Z,48.86
2023-04-04T17:39:45.545Z,49.33
2023-04-04T17:47:19.518Z,49.89
2023-04-04T17:54:54.995Z,50.37
2023-04-04T18:02:28.948Z,51.38
2023-04-04T18:10:04.301Z,53.01
2023-04-04T18:17:38.365Z,54.05
2023-04-04T18:25:13.559Z,54.86
2023-04-04T18:32:48.179Z,55.43
2023-04-04T18:48:15.190Z,57.60
2023-04-04T18:55:50.844Z,59.43
2023-04-04T19:03:25.066Z,61.64
2023-04-04T19:11:00.667Z,62.45
2023-04-04T19:18:34.536Z,62.59
2023-04-04T19:26:09.841Z,63.52
2023-04-04T19:33:43.643Z,63.26
2023-04-04T19:49:30.449Z,66.06
2023-04-04T19:57:08.165Z,67.29
2023-04-04T20:04:42.147Z,66.87
2023-04-04T20:12:19.485Z,68.25
2023-04-04T20:19:53.794Z,69.03
2023-04-04T20:27:29.125Z,70.15
2023-04-04T20:35:03.363Z,70.90
2023-04-04T20:42:41.927Z,72.45
2023-04-04T20:50:44.009Z,72.73
2023-04-04T20:58:30.303Z,73.46
2023-04-04T21:06:11.725Z,73.19
2023-04-04T21:13:47.412Z,72.34
2023-04-04T21:21:21.442Z,73.49
2023-04-04T21:28:58.019Z,74.00
2023-04-04T21:36:31.870Z,75.03
2023-04-04T21:44:08.589Z,74.80
2023-04-04T21:51:42.650Z,75.44
2023-04-04T21:59:17.929Z,76.24
2023-04-04T22:06:52.059Z,76.35
2023-04-04T22:14:27.506Z,76.82
2023-04-04T22:22:01.307Z,76.70
2023-04-04T22:29:36.882Z,77.81
2023-04-04T22:37:11.249Z,78.56
2023-04-04T22:44:48.443Z,77.60
2023-04-04T22:52:22.786Z,77.42
2023-04-04T22:59:57.711Z,77.83
2023-04-04T23:07:31.662Z,78.43
2023-04-04T23:15:09.290Z,78.84
2023-04-04T23:22:44.002Z,79.85
2023-04-04T23:30:19.425Z,79.85
2023-04-04T23:37:53.437Z,79.27
2023-04-04T23:45:30.073Z,79.04
2023-04-04T23:53:03.923Z,79.08
